Time;durP1;ratioP1;P1;durP2;ratioP2;P2;SDS_P1;SDS_P2;PMS_P1;PMS_P2;Temp;Humidity;BMP_temperature;BMP_pressure;BME280_temperature;BME280_humidity;BME280_pressure;Samples;Min_cycle;Max_cycle;Signal;HPM_P1;HPM_P2
2023/09/30 00:01:24;;;;;;;57.13;52.90;;;18.10;99.90;;;;;;5031002;28;20033;-78
2023/09/30 00:03:51;;;;;;;46.10;42.70;;;18.10;99.90;;;;;;5032415;28;20036;-78
2023/09/30 00:06:17;;;;;;;42.97;39.67;;;18.00;99.90;;;;;;5031441;28;20021;-78
2023/09/30 00:08:43;;;;;;;36.13;33.15;;;18.10;99.90;;;;;;5031564;28;20053;-78
2023/09/30 00:11:09;;;;;;;41.58;38.33;;;18.10;99.90;;;;;;5031554;28;20030;-78
2023/09/30 00:13:36;;;;;;;39.75;36.35;;;18.00;99.90;;;;;;5032168;28;20072;-77
2023/09/30 00:16:02;;;;;;;39.97;37.13;;;18.00;99.90;;;;;;5030932;28;20030;-77
2023/09/30 00:18:28;;;;;;;40.78;37.83;;;18.00;99.90;;;;;;5031825;28;20488;-77
2023/09/30 00:20:54;;;;;;;39.97;36.90;;;18.00;99.90;;;;;;5031487;28;20516;-77
2023/09/30 00:23:21;;;;;;;38.22;35.20;;;18.10;99.90;;;;;;5032226;28;20468;-77
2023/09/30 00:25:49;;;;;;;35.00;32.20;;;18.00;99.90;;;;;;5031265;28;20044;-77
2023/09/30 00:28:16;;;;;;;31.58;28.95;;;18.00;99.90;;;;;;5031585;28;20064;-77
2023/09/30 00:30:42;;;;;;;33.38;30.58;;;17.90;99.90;;;;;;5030909;28;20037;-77
2023/09/30 00:33:08;;;;;;;35.25;32.03;;;17.90;99.90;;;;;;5031699;28;20392;-77
2023/09/30 00:35:34;;;;;;;37.50;34.72;;;18.00;99.90;;;;;;5031433;28;20022;-77
2023/09/30 00:38:00;;;;;;;38.33;34.88;;;18.00;99.90;;;;;;5031978;28;20084;-77
2023/09/30 00:40:26;;;;;;;32.70;30.15;;;18.00;99.90;;;;;;5031742;28;20038;-77
2023/09/30 00:42:52;;;;;;;34.15;31.35;;;18.00;99.90;;;;;;5031900;28;20041;-77
2023/09/30 00:45:18;;;;;;;38.08;35.08;;;18.00;99.90;;;;;;5030487;28;20037;-77
2023/09/30 00:47:44;;;;;;;38.65;35.72;;;17.90;99.90;;;;;;5032085;28;20034;-77
2023/09/30 00:50:12;;;;;;;51.47;47.92;;;17.90;99.90;;;;;;5041212;28;20048;-77
2023/09/30 00:52:38;;;;;;;38.83;35.50;;;17.80;99.90;;;;;;5030558;28;20037;-77
2023/09/30 00:55:05;;;;;;;38.70;35.40;;;17.70;99.90;;;;;;5038834;28;20033;-77
2023/09/30 00:57:31;;;;;;;39.70;36.33;;;17.80;99.90;;;;;;5029817;28;20050;-76
2023/09/30 00:59:58;;;;;;;39.70;36.60;;;17.80;99.90;;;;;;5043826;28;20025;-76
2023/09/30 01:02:24;;;;;;;36.40;33.70;;;17.70;99.90;;;;;;5047130;28;20395;-77
2023/09/30 01:04:50;;;;;;;40.17;36.70;;;17.70;99.90;;;;;;5050014;28;20044;-76
2023/09/30 01:07:17;;;;;;;39.60;36.75;;;17.70;99.90;;;;;;5032151;28;20038;-77
2023/09/30 01:09:43;;;;;;;41.88;38.65;;;17.70;99.90;;;;;;5023803;28;20476;-76
2023/09/30 01:12:09;;;;;;;48.95;45.28;;;17.60;99.90;;;;;;5034780;28;20026;-76
2023/09/30 01:14:38;;;;;;;48.95;45.47;;;17.60;99.90;;;;;;5035102;28;20045;-76
2023/09/30 01:17:08;;;;;;;43.95;40.78;;;17.50;99.90;;;;;;5035037;28;20041;-76
2023/09/30 01:19:34;;;;;;;44.50;40.88;;;17.50;99.90;;;;;;5034442;28;20136;-74
2023/09/30 01:22:02;;;;;;;39.92;36.85;;;17.60;99.90;;;;;;5034258;28;20037;-77
2023/09/30 01:24:38;;;;;;;38.05;34.78;;;17.60;99.90;;;;;;5034614;28;20045;-77
2023/09/30 01:27:04;;;;;;;36.30;33.40;;;17.60;99.90;;;;;;5034313;28;20519;-77
2023/09/30 01:29:30;;;;;;;39.72;36.47;;;17.60;99.90;;;;;;5034477;28;20046;-77
2023/09/30 01:31:56;;;;;;;41.08;37.90;;;17.60;99.90;;;;;;5033392;28;20404;-76
2023/09/30 01:34:22;;;;;;;42.38;39.15;;;17.60;99.90;;;;;;5034800;28;20044;-77
2023/09/30 01:36:48;;;;;;;40.60;37.40;;;17.60;99.90;;;;;;5028512;28;20392;-76
2023/09/30 01:39:15;;;;;;;42.20;38.95;;;17.60;99.90;;;;;;5034502;28;20040;-76
2023/09/30 01:41:41;;;;;;;41.88;38.47;;;17.70;99.90;;;;;;5034199;28;20033;-77
2023/09/30 01:44:07;;;;;;;40.58;37.70;;;17.60;99.90;;;;;;5034931;28;20369;-77
2023/09/30 01:46:33;;;;;;;43.08;39.30;;;17.60;99.90;;;;;;5046494;28;20033;-76
2023/09/30 01:48:59;;;;;;;41.88;38.88;;;17.60;99.90;;;;;;5054379;28;20024;-77
2023/09/30 01:51:25;;;;;;;42.45;39.22;;;17.60;99.90;;;;;;5054247;28;20032;-77
2023/09/30 01:53:51;;;;;;;42.72;39.60;;;17.60;99.90;;;;;;5053448;28;20024;-77
2023/09/30 01:56:18;;;;;;;43.53;40.53;;;17.60;99.90;;;;;;5053315;28;20037;-77
2023/09/30 01:58:44;;;;;;;40.70;37.50;;;17.50;99.90;;;;;;5055952;28;20483;-77
2023/09/30 02:01:10;;;;;;;47.40;44.13;;;17.50;99.90;;;;;;5070979;28;20040;-77
2023/09/30 02:03:36;;;;;;;44.70;41.53;;;17.50;99.90;;;;;;5072806;28;20395;-77
2023/09/30 02:06:03;;;;;;;42.55;39.22;;;17.50;99.90;;;;;;5055404;28;20036;-77
2023/09/30 02:08:29;;;;;;;44.35;40.67;;;17.50;99.90;;;;;;5035847;28;20040;-77
2023/09/30 02:10:55;;;;;;;44.97;41.42;;;17.50;99.90;;;;;;5053224;28;20033;-76
2023/09/30 02:13:21;;;;;;;45.97;42.47;;;17.50;99.90;;;;;;5054177;28;20040;-77
2023/09/30 02:15:47;;;;;;;41.45;38.30;;;17.40;99.90;;;;;;5053170;28;20033;-77
2023/09/30 02:18:14;;;;;;;47.80;43.95;;;17.50;99.90;;;;;;5054367;28;20043;-77
2023/09/30 02:20:40;;;;;;;41.83;38.92;;;17.40;99.90;;;;;;5052726;28;20045;-76
2023/09/30 02:23:10;;;;;;;42.22;39.03;;;17.40;99.90;;;;;;5071153;28;20400;-77
2023/09/30 02:25:37;;;;;;;44.70;41.40;;;17.40;99.90;;;;;;5068804;28;20037;-77
2023/09/30 02:28:04;;;;;;;44.67;41.33;;;17.40;99.90;;;;;;5054055;28;20025;-77
2023/09/30 02:30:30;;;;;;;44.15;40.88;;;17.30;99.90;;;;;;5065440;28;20037;-77
2023/09/30 02:32:57;;;;;;;46.75;43.08;;;17.20;99.90;;;;;;5053679;28;20041;-77
2023/09/30 02:35:23;;;;;;;47.83;44.20;;;17.20;99.90;;;;;;5053502;28;20677;-77
2023/09/30 02:37:52;;;;;;;49.03;45.53;;;17.30;99.90;;;;;;5053856;28;20037;-77
2023/09/30 02:40:18;;;;;;;46.65;43.28;;;17.20;99.90;;;;;;5052557;28;20033;-77
2023/09/30 02:42:44;;;;;;;47.67;44.25;;;17.20;99.90;;;;;;5053775;28;20041;-76
2023/09/30 02:45:12;;;;;;;52.72;48.97;;;17.10;99.90;;;;;;5052462;28;20032;-77
2023/09/30 02:47:39;;;;;;;50.25;46.58;;;17.00;99.90;;;;;;5052338;28;20041;-77
2023/09/30 02:50:06;;;;;;;48.90;45.42;;;17.00;99.90;;;;;;5051211;28;20381;-76
2023/09/30 02:52:32;;;;;;;54.55;50.33;;;16.90;99.90;;;;;;5052308;28;20033;-76
2023/09/30 02:54:58;;;;;;;51.30;47.33;;;16.90;99.90;;;;;;5053143;28;20025;-77
2023/09/30 02:57:25;;;;;;;48.80;45.53;;;16.90;99.90;;;;;;5053086;28;20033;-77
2023/09/30 02:59:54;;;;;;;51.17;47.53;;;16.80;99.90;;;;;;5063974;28;20398;-77
2023/09/30 03:02:21;;;;;;;44.63;41.38;;;16.90;99.90;;;;;;5053592;28;20034;-77
2023/09/30 03:04:47;;;;;;;52.25;48.28;;;16.80;99.90;;;;;;5051038;28;20045;-77
2023/09/30 03:07:14;;;;;;;48.55;44.97;;;16.80;99.90;;;;;;5055390;28;20029;-76
2023/09/30 03:09:40;;;;;;;46.70;42.97;;;16.80;99.90;;;;;;5061486;28;20049;-77
2023/09/30 03:12:08;;;;;;;47.17;43.80;;;16.80;99.90;;;;;;5052609;28;20049;-77
2023/09/30 03:14:34;;;;;;;50.10;46.35;;;16.80;99.90;;;;;;5052678;28;20045;-76
2023/09/30 03:17:01;;;;;;;46.97;43.45;;;16.80;99.90;;;;;;5052372;28;20044;-77
2023/09/30 03:19:27;;;;;;;47.95;44.30;;;16.70;99.90;;;;;;5052202;28;20079;-77
2023/09/30 03:21:53;;;;;;;47.17;43.88;;;16.70;99.90;;;;;;5052570;28;20391;-77
2023/09/30 03:24:19;;;;;;;40.55;37.05;;;16.70;99.90;;;;;;5052650;28;20040;-77
2023/09/30 03:26:45;;;;;;;37.15;34.30;;;16.70;99.90;;;;;;5052321;28;20120;-76
2023/09/30 03:29:12;;;;;;;38.65;35.83;;;16.80;99.90;;;;;;5057995;28;20062;-77
2023/09/30 03:31:38;;;;;;;39.08;35.83;;;16.70;99.90;;;;;;5057943;28;20044;-77
2023/09/30 03:34:04;;;;;;;44.85;41.22;;;16.60;99.90;;;;;;5050890;28;20499;-77
2023/09/30 03:36:31;;;;;;;49.92;46.55;;;16.50;99.90;;;;;;5052165;28;20045;-77
2023/09/30 03:39:04;;;;;;;46.28;42.78;;;16.50;99.90;;;;;;5051945;28;20052;-77
2023/09/30 03:41:31;;;;;;;48.63;44.72;;;16.50;99.90;;;;;;5041910;28;20369;-77
2023/09/30 03:43:57;;;;;;;49.25;45.80;;;16.50;99.90;;;;;;5052023;28;20044;-77
2023/09/30 03:46:23;;;;;;;38.42;35.40;;;16.50;99.90;;;;;;5051731;28;20099;-76
2023/09/30 03:48:49;;;;;;;33.90;30.52;;;16.50;99.90;;;;;;5052049;28;20029;-77
2023/09/30 03:51:15;;;;;;;44.72;41.78;;;16.50;99.90;;;;;;5051984;28;20407;-77
2023/09/30 03:53:42;;;;;;;44.70;41.40;;;16.50;99.90;;;;;;5051785;28;20033;-77
2023/09/30 03:56:11;;;;;;;43.78;40.40;;;16.40;99.90;;;;;;5052075;28;20039;-76
2023/09/30 03:58:41;;;;;;;43.75;40.72;;;16.40;99.90;;;;;;5052981;28;20037;-77
2023/09/30 04:01:11;;;;;;;44.60;41.05;;;16.40;99.90;;;;;;5050662;28;20045;-77
2023/09/30 04:03:39;;;;;;;42.85;39.78;;;16.40;99.90;;;;;;5049755;28;20052;-77
2023/09/30 04:06:06;;;;;;;41.58;38.38;;;16.30;99.90;;;;;;5052429;28;20068;-78
2023/09/30 04:08:33;;;;;;;41.65;38.83;;;16.30;99.90;;;;;;5052403;28;20040;-77
2023/09/30 04:11:00;;;;;;;42.85;39.53;;;16.20;99.90;;;;;;5042387;28;20044;-77
2023/09/30 04:13:27;;;;;;;41.80;38.65;;;16.20;99.90;;;;;;5048360;28;20025;-77
2023/09/30 04:15:53;;;;;;;38.50;35.38;;;16.20;99.90;;;;;;5041970;28;20057;-78
2023/09/30 04:18:21;;;;;;;38.20;35.40;;;16.20;99.90;;;;;;5032526;28;20037;-77
2023/09/30 04:20:48;;;;;;;39.60;36.63;;;16.20;99.90;;;;;;5030334;28;20476;-77
2023/09/30 04:23:15;;;;;;;38.83;36.00;;;16.20;99.90;;;;;;5031010;28;20506;-76
2023/09/30 04:25:43;;;;;;;40.97;38.08;;;16.20;99.90;;;;;;5031836;28;20041;-77
2023/09/30 04:28:09;;;;;;;41.20;38.13;;;16.20;99.90;;;;;;5031471;28;20068;-77
2023/09/30 04:30:35;;;;;;;38.60;35.90;;;16.10;99.90;;;;;;5030492;28;20511;-76
2023/09/30 04:33:04;;;;;;;40.13;37.55;;;16.10;99.90;;;;;;5030762;28;20045;-78
2023/09/30 04:35:31;;;;;;;40.15;37.35;;;16.10;99.90;;;;;;5030913;28;20041;-76
2023/09/30 04:38:01;;;;;;;37.92;35.13;;;16.10;99.90;;;;;;5032201;28;20487;-78
2023/09/30 04:40:27;;;;;;;40.30;37.17;;;16.00;99.90;;;;;;5030570;28;20064;-77
2023/09/30 04:42:58;;;;;;;38.65;36.00;;;16.00;99.90;;;;;;5033098;28;20374;-76
2023/09/30 04:45:25;;;;;;;;;;;16.00;99.90;;;;;;5034144;28;20033;-77
2023/09/30 04:47:57;;;;;;;38.40;35.60;;;16.00;99.90;;;;;;5035531;28;19905;-76
2023/09/30 04:50:23;;;;;;;40.60;37.58;;;15.90;99.90;;;;;;5034545;28;20052;-78
2023/09/30 04:52:53;;;;;;;35.90;33.40;;;15.90;99.90;;;;;;5033657;28;20033;-76
2023/09/30 04:55:19;;;;;;;35.00;32.58;;;15.90;99.90;;;;;;5033642;28;20397;-78
2023/09/30 04:57:47;;;;;;;32.63;30.05;;;15.90;99.90;;;;;;5035653;28;20499;-78
2023/09/30 05:00:17;;;;;;;29.23;27.10;;;15.90;99.90;;;;;;5034039;28;20041;-77
2023/09/30 05:02:47;;;;;;;31.60;29.13;;;15.90;99.90;;;;;;5025776;28;20025;-76
2023/09/30 05:05:14;;;;;;;32.85;30.65;;;15.90;99.90;;;;;;5053261;28;20036;-76
2023/09/30 05:07:41;;;;;;;31.17;29.00;;;15.90;99.90;;;;;;5042037;28;20483;-76
2023/09/30 05:10:13;;;;;;;31.13;28.75;;;15.90;99.90;;;;;;5042147;28;20061;-75
2023/09/30 05:12:40;;;;;;;30.88;28.77;;;15.80;99.90;;;;;;5035338;28;20060;-73
2023/09/30 05:15:07;;;;;;;31.83;29.52;;;15.90;99.90;;;;;;5034480;28;20045;-73
2023/09/30 05:17:33;;;;;;;31.95;29.45;;;15.80;99.90;;;;;;5050517;28;20036;-73
2023/09/30 05:19:59;;;;;;;31.17;28.40;;;15.80;99.90;;;;;;5045496;28;20021;-75
2023/09/30 05:22:26;;;;;;;29.23;27.00;;;15.80;99.90;;;;;;5034806;28;20030;-76
2023/09/30 05:24:53;;;;;;;29.95;27.77;;;15.80;99.90;;;;;;5035252;28;20048;-73
2023/09/30 05:27:19;;;;;;;32.22;29.80;;;15.70;99.90;;;;;;5032675;28;20483;-73
2023/09/30 05:29:45;;;;;;;31.08;28.55;;;15.70;99.90;;;;;;5034283;28;20033;-75
2023/09/30 05:32:12;;;;;;;30.85;28.73;;;15.60;99.90;;;;;;5033924;28;20040;-75
2023/09/30 05:34:39;;;;;;;33.65;31.27;;;15.70;99.90;;;;;;5034274;28;20046;-75
2023/09/30 05:37:05;;;;;;;31.92;29.10;;;15.70;99.90;;;;;;5034578;28;20041;-75
2023/09/30 05:39:31;;;;;;;35.20;32.58;;;15.70;99.90;;;;;;5034716;28;20033;-76
2023/09/30 05:41:58;;;;;;;35.72;32.97;;;15.70;99.90;;;;;;5034253;28;20046;-76
2023/09/30 05:44:27;;;;;;;34.33;31.65;;;15.70;99.90;;;;;;5035056;28;20034;-75
2023/09/30 05:46:54;;;;;;;30.15;27.80;;;15.60;99.90;;;;;;5033228;28;20029;-76
2023/09/30 05:49:20;;;;;;;32.17;29.55;;;15.70;99.90;;;;;;5034116;28;20049;-76
2023/09/30 05:51:46;;;;;;;32.85;30.45;;;15.60;99.90;;;;;;5033820;28;20037;-76
2023/09/30 05:54:12;;;;;;;32.58;29.95;;;15.60;99.90;;;;;;5033791;28;20026;-76
2023/09/30 05:56:42;;;;;;;31.63;28.67;;;15.60;99.90;;;;;;5034251;28;20025;-75
2023/09/30 05:59:08;;;;;;;31.15;28.52;;;15.60;99.90;;;;;;5034074;28;20033;-75
2023/09/30 06:01:35;;;;;;;32.10;29.40;;;15.60;99.90;;;;;;5033245;28;20041;-75
2023/09/30 06:04:02;;;;;;;32.38;30.00;;;15.60;99.90;;;;;;5033701;28;20045;-76
2023/09/30 06:06:31;;;;;;;38.50;35.65;;;15.60;99.90;;;;;;5034207;28;20044;-76
2023/09/30 06:09:00;;;;;;;36.10;33.20;;;15.50;99.90;;;;;;5033915;28;20523;-76
2023/09/30 06:11:28;;;;;;;31.95;29.55;;;15.50;99.90;;;;;;5033348;28;20538;-74
2023/09/30 06:13:54;;;;;;;35.50;32.55;;;15.50;99.90;;;;;;5033837;28;20045;-73
2023/09/30 06:16:21;;;;;;;31.23;29.05;;;15.50;99.90;;;;;;5031875;28;20038;-69
2023/09/30 06:18:48;;;;;;;39.17;35.97;;;15.60;99.90;;;;;;5034245;28;20042;-76
2023/09/30 06:21:14;;;;;;;31.10;28.33;;;15.80;99.90;;;;;;5036157;28;20064;-68
2023/09/30 06:23:40;;;;;;;93.80;49.10;;;15.90;99.90;;;;;;5016501;28;20046;-69
2023/09/30 06:26:07;;;;;;;41.72;37.55;;;15.90;99.90;;;;;;5032261;28;20045;-69
2023/09/30 06:28:40;;;;;;;36.00;33.05;;;16.00;99.90;;;;;;5038822;28;20037;-69
2023/09/30 06:31:09;;;;;;;33.72;31.05;;;16.00;99.90;;;;;;5030938;28;20384;-75
2023/09/30 06:33:38;;;;;;;32.28;29.90;;;16.00;99.90;;;;;;5033074;28;20036;-75
2023/09/30 06:36:11;;;;;;;31.85;29.35;;;15.90;99.90;;;;;;5032008;28;20404;-74
2023/09/30 06:38:37;;;;;;;34.50;31.70;;;15.80;99.90;;;;;;5033736;28;20038;-75
2023/09/30 06:41:04;;;;;;;43.28;40.00;;;15.80;99.90;;;;;;5033500;28;20034;-74
2023/09/30 06:43:30;;;;;;;39.10;36.33;;;15.80;99.90;;;;;;5033624;28;20041;-75
2023/09/30 06:45:56;;;;;;;42.88;39.85;;;15.70;99.90;;;;;;5040133;28;20052;-74
2023/09/30 06:48:22;;;;;;;40.88;37.95;;;15.60;99.90;;;;;;5053602;28;20037;-74
2023/09/30 06:50:49;;;;;;;43.92;40.67;;;15.70;99.90;;;;;;5052527;28;20056;-74
2023/09/30 06:53:16;;;;;;;36.15;33.13;;;15.80;99.90;;;;;;5053331;28;20041;-75
2023/09/30 06:55:46;;;;;;;37.67;34.83;;;15.90;99.90;;;;;;5052816;28;20048;-75
2023/09/30 06:58:12;;;;;;;38.70;35.75;;;16.00;99.90;;;;;;5049766;28;20053;-75
2023/09/30 07:00:38;;;;;;;35.22;32.67;;;16.00;99.90;;;;;;5047426;28;20029;-74
2023/09/30 07:03:04;;;;;;;34.53;32.13;;;16.10;99.90;;;;;;5037668;28;20045;-75
2023/09/30 07:05:31;;;;;;;35.65;32.78;;;16.10;99.90;;;;;;5052052;28;20834;-75
2023/09/30 07:07:57;;;;;;;37.80;34.70;;;16.30;99.90;;;;;;5052070;28;20036;-75
2023/09/30 07:10:23;;;;;;;34.15;30.95;;;16.50;99.90;;;;;;5050695;28;20044;-75
2023/09/30 07:12:49;;;;;;;29.48;26.98;;;16.70;99.90;;;;;;5051670;28;20025;-75
2023/09/30 07:15:15;;;;;;;27.38;25.10;;;17.00;99.90;;;;;;5050906;28;20527;-74
2023/09/30 07:17:41;;;;;;;26.15;24.02;;;17.10;99.90;;;;;;5053184;28;20029;-75
2023/09/30 07:20:07;;;;;;;34.30;31.23;;;17.30;99.90;;;;;;5052839;28;20430;-75
2023/09/30 07:22:34;;;;;;;33.85;31.30;;;17.60;99.90;;;;;;5051833;28;20041;-67
2023/09/30 07:25:00;;;;;;;37.33;34.70;;;17.80;99.90;;;;;;5050995;28;20035;-68
2023/09/30 07:27:26;;;;;;;45.35;42.15;;;18.10;99.90;;;;;;5051208;28;20503;-67
2023/09/30 07:29:52;;;;;;;51.58;48.03;;;18.50;99.90;;;;;;5051302;28;20048;-67
2023/09/30 07:32:19;;;;;;;76.15;71.03;;;18.70;99.90;;;;;;5038952;28;20416;-67
2023/09/30 07:34:45;;;;;;;79.72;74.85;;;19.10;99.90;;;;;;5039961;28;20049;-73
2023/09/30 07:37:11;;;;;;;83.00;77.85;;;19.40;99.90;;;;;;5045177;28;20041;-73
2023/09/30 07:39:37;;;;;;;90.90;85.38;;;19.50;99.90;;;;;;5036487;28;20060;-73
2023/09/30 07:42:03;;;;;;;106.82;100.65;;;19.10;99.90;;;;;;5032024;28;20029;-74
2023/09/30 07:44:29;;;;;;;83.00;77.88;;;19.00;99.90;;;;;;5033432;28;20026;-73
2023/09/30 07:46:55;;;;;;;101.40;95.40;;;18.90;99.90;;;;;;5045464;28;20399;-73
2023/09/30 07:49:22;;;;;;;107.75;101.40;;;19.20;99.90;;;;;;5052601;28;20021;-74
2023/09/30 07:51:48;;;;;;;116.88;110.10;;;19.30;99.90;;;;;;5037872;28;20412;-73
2023/09/30 07:54:14;;;;;;;142.20;134.38;;;19.30;99.90;;;;;;5032038;28;20046;-73
2023/09/30 07:56:40;;;;;;;132.50;125.00;;;19.30;99.90;;;;;;5042618;28;20045;-73
2023/09/30 07:59:06;;;;;;;119.68;113.10;;;19.30;99.90;;;;;;5050454;28;20029;-72
2023/09/30 08:01:32;;;;;;;126.10;119.18;;;19.30;99.90;;;;;;5031288;28;20040;-72
2023/09/30 08:03:58;;;;;;;149.55;141.10;;;19.30;99.90;;;;;;5043259;28;20034;-73
2023/09/30 08:06:24;;;;;;;144.00;135.90;;;19.40;99.90;;;;;;5039705;28;20479;-72
2023/09/30 08:08:50;;;;;;;148.48;140.20;;;19.20;99.90;;;;;;5039607;28;20038;-72
2023/09/30 08:11:18;;;;;;;139.60;131.73;;;18.90;99.90;;;;;;5031005;28;20041;-72
2023/09/30 08:13:44;;;;;;;123.65;116.47;;;18.80;99.90;;;;;;5031277;28;20522;-72
2023/09/30 08:16:10;;;;;;;134.98;127.35;;;19.00;99.90;;;;;;5031125;28;20037;-72
2023/09/30 08:18:36;;;;;;;125.78;118.43;;;19.00;99.90;;;;;;5032477;28;20045;-72
2023/09/30 08:21:03;;;;;;;130.07;122.50;;;19.00;99.90;;;;;;5031112;28;20048;-72
2023/09/30 08:23:30;;;;;;;155.30;146.35;;;19.10;99.90;;;;;;5032185;28;20044;-72
2023/09/30 08:25:59;;;;;;;150.90;142.52;;;19.60;99.90;;;;;;5031588;28;20100;-73
2023/09/30 08:28:25;;;;;;;137.82;129.98;;;19.40;99.90;;;;;;5030337;28;20042;-70
2023/09/30 08:30:54;;;;;;;139.77;132.00;;;19.30;99.90;;;;;;5031542;28;20534;-72
2023/09/30 08:33:20;;;;;;;138.35;130.55;;;19.30;99.90;;;;;;5029834;28;20072;-72
2023/09/30 08:35:46;;;;;;;156.23;147.63;;;19.50;99.90;;;;;;5032585;28;20034;-73
2023/09/30 08:38:12;;;;;;;153.70;145.18;;;19.50;99.90;;;;;;5030984;28;20045;-72
2023/09/30 08:40:38;;;;;;;154.23;145.60;;;19.50;99.90;;;;;;5030902;28;20500;-72
2023/09/30 08:43:05;;;;;;;134.40;126.95;;;19.40;99.90;;;;;;5031398;28;20042;-72
2023/09/30 08:45:31;;;;;;;132.15;124.90;;;19.10;99.90;;;;;;5028336;28;20380;-72
2023/09/30 08:48:00;;;;;;;117.05;110.18;;;19.10;99.90;;;;;;5029914;28;20029;-72
2023/09/30 08:50:26;;;;;;;115.82;109.38;;;19.00;99.90;;;;;;5031307;28;20101;-72
2023/09/30 08:52:52;;;;;;;136.73;129.02;;;19.10;99.90;;;;;;5030502;28;20026;-72
2023/09/30 08:55:18;;;;;;;126.45;119.25;;;19.20;99.90;;;;;;5029881;28;20041;-72
2023/09/30 08:57:45;;;;;;;129.45;122.40;;;19.30;99.90;;;;;;5030075;28;20036;-72
2023/09/30 09:00:12;;;;;;;119.05;112.38;;;19.30;99.90;;;;;;5029162;28;20025;-72
2023/09/30 09:02:41;;;;;;;113.70;107.32;;;19.20;99.90;;;;;;5028767;28;20498;-72
2023/09/30 09:05:08;;;;;;;112.47;106.13;;;19.10;99.90;;;;;;5031736;28;20026;-72
2023/09/30 09:07:37;;;;;;;111.15;104.57;;;19.10;99.90;;;;;;5019931;28;20049;-72
2023/09/30 09:10:07;;;;;;;121.65;114.97;;;19.30;99.90;;;;;;5030157;28;20392;-72
2023/09/30 09:12:34;;;;;;;135.63;128.10;;;19.30;99.90;;;;;;5030255;28;20504;-72
2023/09/30 09:15:01;;;;;;;130.77;123.22;;;19.50;99.90;;;;;;5031316;28;20052;-72
2023/09/30 09:17:43;;;;;;;145.52;137.48;;;19.80;99.90;;;;;;5028671;28;20476;-72
2023/09/30 09:20:10;;;;;;;146.00;138.15;;;20.00;99.90;;;;;;5028497;28;20365;-72
2023/09/30 09:22:43;;;;;;;168.60;159.27;;;20.00;99.90;;;;;;5031312;28;20034;-72
2023/09/30 09:25:10;;;;;;;162.80;153.95;;;20.00;99.90;;;;;;5029105;28;20025;-72
2023/09/30 09:27:37;;;;;;;177.18;167.80;;;19.90;99.90;;;;;;5024625;28;20033;-72
2023/09/30 09:30:19;;;;;;;181.65;171.98;;;20.20;99.90;;;;;;5034672;28;20045;-69
2023/09/30 09:32:54;;;;;;;236.65;223.88;;;20.40;99.90;;;;;;5034548;28;20056;-72
2023/09/30 09:35:21;;;;;;;250.75;237.40;;;20.70;99.90;;;;;;5034242;28;20492;-72
2023/09/30 09:38:01;;;;;;;284.88;269.90;;;20.90;99.90;;;;;;5034922;28;20037;-72
2023/09/30 09:40:28;;;;;;;303.65;287.20;;;21.00;99.90;;;;;;5034229;28;20048;-72
2023/09/30 09:42:55;;;;;;;274.17;259.90;;;21.20;99.90;;;;;;5035019;28;20048;-71
2023/09/30 09:45:22;;;;;;;295.58;279.95;;;21.10;99.90;;;;;;5033280;28;20033;-71
2023/09/30 09:47:49;;;;;;;287.00;271.75;;;20.90;99.90;;;;;;5031343;28;20061;-72
2023/09/30 09:50:15;;;;;;;310.02;294.00;;;20.70;99.90;;;;;;5034740;28;20032;-72
2023/09/30 09:52:42;;;;;;;296.10;280.98;;;20.60;99.90;;;;;;5032713;28;20065;-72
2023/09/30 09:55:10;;;;;;;286.90;272.35;;;20.80;99.90;;;;;;5017506;28;20032;-72
2023/09/30 09:57:37;;;;;;;317.98;301.42;;;20.90;99.90;;;;;;5034291;28;20037;-72
2023/09/30 10:00:11;;;;;;;337.77;320.67;;;21.00;99.90;;;;;;5031999;28;20046;-71
2023/09/30 10:02:42;;;;;;;305.08;289.45;;;21.10;99.90;;;;;;5028239;28;20052;-72
2023/09/30 10:05:09;;;;;;;303.80;288.20;;;21.00;99.90;;;;;;5034092;28;20044;-71
2023/09/30 10:07:37;;;;;;;290.23;275.40;;;20.90;99.90;;;;;;5033036;28;20041;-71
2023/09/30 10:10:07;;;;;;;313.42;296.85;;;20.80;99.90;;;;;;5034115;28;20376;-72
2023/09/30 10:12:39;;;;;;;296.00;280.67;;;20.60;99.90;;;;;;5048324;28;20037;-72
2023/09/30 10:15:28;;;;;;;274.27;260.00;;;20.70;99.90;;;;;;5049755;28;20045;-72
2023/09/30 10:18:03;;;;;;;278.40;264.17;;;20.80;99.90;;;;;;5024476;28;20045;-69
2023/09/30 10:20:30;;;;;;;261.92;248.30;;;20.90;99.90;;;;;;5032717;28;20033;-71
2023/09/30 10:23:19;;;;;;;323.90;307.10;;;20.80;99.90;;;;;;5034110;28;20041;-71
2023/09/30 10:25:49;;;;;;;312.73;296.55;;;20.80;99.90;;;;;;5033527;28;20021;-71
2023/09/30 10:28:37;;;;;;;345.75;327.75;;;21.00;99.90;;;;;;5033362;28;20049;-71
2023/09/30 10:31:24;;;;;;;325.80;308.35;;;21.20;99.90;;;;;;5032016;28;20041;-73
2023/09/30 10:34:02;;;;;;;336.35;318.58;;;21.10;99.90;;;;;;5052906;28;20045;-73
2023/09/30 10:36:33;;;;;;;310.23;294.20;;;21.20;99.90;;;;;;5037720;28;20064;-72
2023/09/30 10:39:00;;;;;;;339.17;321.77;;;21.30;99.90;;;;;;5033763;28;20049;-73
2023/09/30 10:41:41;;;;;;;322.58;305.88;;;21.30;99.90;;;;;;5032586;28;20041;-72
2023/09/30 10:44:22;;;;;;;293.98;278.73;;;21.20;99.90;;;;;;5052276;28;20400;-73
2023/09/30 10:46:49;;;;;;;271.65;257.70;;;20.90;99.90;;;;;;5035280;28;20045;-73
2023/09/30 10:49:20;;;;;;;333.08;316.17;;;20.90;99.90;;;;;;5032677;28;20046;-72
2023/09/30 10:51:46;;;;;;;312.30;295.58;;;21.00;99.90;;;;;;5033287;28;20120;-73
2023/09/30 10:54:12;;;;;;;317.42;300.77;;;21.20;99.90;;;;;;5048242;28;20044;-73
2023/09/30 10:56:39;;;;;;;311.08;294.98;;;21.40;99.90;;;;;;5036970;28;20036;-73
2023/09/30 10:59:05;;;;;;;321.45;304.88;;;21.60;99.90;;;;;;5033618;28;20045;-73
2023/09/30 11:01:34;;;;;;;339.33;321.85;;;21.50;99.90;;;;;;5032685;28;20037;-73
2023/09/30 11:04:04;;;;;;;380.38;360.50;;;21.50;99.90;;;;;;5041594;28;20033;-73
2023/09/30 11:06:30;;;;;;;388.87;368.27;;;21.60;99.90;;;;;;5038650;28;20054;-73
2023/09/30 11:09:00;;;;;;;397.88;376.98;;;21.80;99.90;;;;;;5031477;28;20546;-73
2023/09/30 11:11:43;;;;;;;377.73;358.17;;;21.90;99.90;;;;;;5032756;28;20041;-73
2023/09/30 11:14:18;;;;;;;396.98;376.27;;;22.00;99.90;;;;;;5042329;28;20434;-73
2023/09/30 11:16:44;;;;;;;369.77;350.65;;;22.10;99.90;;;;;;5035504;28;20041;-72
2023/09/30 11:19:14;;;;;;;397.42;376.25;;;22.00;99.90;;;;;;5032898;28;20026;-73
2023/09/30 11:21:41;;;;;;;421.60;398.85;;;21.90;99.90;;;;;;5032224;28;20048;-72
2023/09/30 11:24:07;;;;;;;423.92;401.27;;;21.80;99.90;;;;;;5038289;28;20064;-73
2023/09/30 11:26:33;;;;;;;404.85;382.98;;;21.80;99.90;;;;;;5031257;28;20048;-73
2023/09/30 11:29:06;;;;;;;420.40;398.25;;;21.90;99.90;;;;;;5032986;28;20033;-72
2023/09/30 11:31:34;;;;;;;394.33;373.10;;;21.80;99.90;;;;;;5032042;28;20061;-73
2023/09/30 11:34:03;;;;;;;411.58;390.00;;;21.70;99.90;;;;;;5034391;28;20049;-72
2023/09/30 11:36:30;;;;;;;399.88;379.30;;;21.70;99.90;;;;;;5037819;28;20045;-72
2023/09/30 11:38:56;;;;;;;428.83;406.55;;;21.70;99.90;;;;;;5032689;28;20484;-73
2023/09/30 11:41:31;;;;;;;424.05;401.88;;;21.90;99.90;;;;;;5032307;28;20488;-73
2023/09/30 11:44:02;;;;;;;428.85;406.33;;;22.00;99.90;;;;;;5032014;28;20025;-72
2023/09/30 11:46:28;;;;;;;470.33;445.30;;;22.10;99.90;;;;;;5031495;28;20048;-73
2023/09/30 11:49:01;;;;;;;474.65;449.70;;;22.30;99.90;;;;;;5032574;28;20029;-73
2023/09/30 11:51:34;;;;;;;423.30;400.60;;;22.40;99.90;;;;;;5031515;28;20049;-73
2023/09/30 11:54:01;;;;;;;372.98;353.27;;;22.50;99.90;;;;;;5028055;28;20029;-72
2023/09/30 11:56:29;;;;;;;472.95;447.50;;;22.50;99.90;;;;;;5030921;28;20552;-73
2023/09/30 11:58:56;;;;;;;300.27;285.02;;;22.60;99.90;;;;;;5022151;28;20125;-73
2023/09/30 12:01:22;;;;;;;380.92;361.02;;;22.60;99.90;;;;;;5024898;28;20037;-73
2023/09/30 12:03:49;;;;;;;373.65;354.02;;;22.60;99.90;;;;;;5032191;28;20101;-72
2023/09/30 12:06:16;;;;;;;357.73;339.45;;;22.70;99.90;;;;;;5032013;28;20041;-72
2023/09/30 12:08:42;;;;;;;354.48;336.13;;;22.80;99.90;;;;;;5032029;28;20089;-72
2023/09/30 12:11:12;;;;;;;329.17;312.33;;;22.70;99.90;;;;;;5031879;28;20040;-73
2023/09/30 12:13:39;;;;;;;296.30;280.83;;;22.80;99.90;;;;;;5031578;28;20046;-73
2023/09/30 12:16:05;;;;;;;364.63;345.52;;;22.80;99.90;;;;;;5030822;28;20052;-73
2023/09/30 12:18:31;;;;;;;335.20;318.10;;;22.90;99.90;;;;;;5040101;28;20040;-72
2023/09/30 12:20:57;;;;;;;397.63;376.70;;;23.00;99.90;;;;;;5044701;28;20391;-72
2023/09/30 12:23:23;;;;;;;357.00;338.33;;;23.30;99.90;;;;;;5029113;28;20029;-72